Time;durP1;ratioP1;P1;durP2;ratioP2;P2;SDS_P1;SDS_P2;PMS_P1;PMS_P2;Temp;Humidity;BMP_temperature;BMP_pressure;BME280_temperature;BME280_humidity;BME280_pressure;Samples;Min_cycle;Max_cycle;Signal;HPM_P1;HPM_P2
2022/12/31 00:00:39;;;;;;;1.53;1.40;;;11.50;1.00;;;;;;5051359;28;20273;-57
2022/12/31 00:03:05;;;;;;;1.70;1.50;;;11.40;1.00;;;;;;5042762;28;20301;-56
2022/12/31 00:05:32;;;;;;;3.20;1.40;;;11.50;1.00;;;;;;5042220;28;20428;-58
2022/12/31 00:07:58;;;;;;;1.70;1.60;;;11.60;1.00;;;;;;5039483;28;20461;-58
2022/12/31 00:10:24;;;;;;;1.83;1.70;;;11.60;1.00;;;;;;5040416;28;20494;-58
2022/12/31 00:12:50;;;;;;;1.80;1.37;;;11.70;1.00;;;;;;5041542;28;20957;-57
2022/12/31 00:15:16;;;;;;;1.90;1.70;;;11.70;1.00;;;;;;5048566;28;20190;-57
2022/12/31 00:17:42;;;;;;;2.80;1.40;;;11.80;1.00;;;;;;5064830;28;20853;-57
2022/12/31 00:20:07;;;;;;;2.70;1.50;;;11.90;1.00;;;;;;5050797;28;20566;-57
2022/12/31 00:22:33;;;;;;;1.80;1.50;;;11.90;1.00;;;;;;5049219;28;20200;-57
2022/12/31 00:24:59;;;;;;;1.53;1.33;;;12.00;1.00;;;;;;5045430;28;20625;-58
2022/12/31 00:27:25;;;;;;;2.17;1.93;;;11.90;1.00;;;;;;5043841;28;20477;-57
2022/12/31 00:29:50;;;;;;;1.30;1.20;;;12.00;1.00;;;;;;5039935;28;20196;-57
2022/12/31 00:32:16;;;;;;;1.73;1.30;;;12.00;1.00;;;;;;5047331;28;20239;-57
2022/12/31 00:34:41;;;;;;;1.00;0.90;;;12.10;1.00;;;;;;5040317;28;20201;-57
2022/12/31 00:37:07;;;;;;;3.83;1.87;;;12.20;1.00;;;;;;5042133;28;20657;-58
2022/12/31 00:39:33;;;;;;;1.20;1.10;;;12.30;1.00;;;;;;5041311;28;20680;-56
2022/12/31 00:41:58;;;;;;;2.07;1.70;;;12.20;1.00;;;;;;5042261;28;20195;-57
2022/12/31 00:44:24;;;;;;;1.60;1.50;;;12.40;1.00;;;;;;5042329;28;20187;-57
2022/12/31 00:46:49;;;;;;;1.80;1.70;;;12.30;1.00;;;;;;5045059;28;20548;-56
2022/12/31 00:49:15;;;;;;;4.83;4.00;;;12.10;1.00;;;;;;5045035;28;20233;-57
2022/12/31 00:51:41;;;;;;;2.00;1.90;;;12.20;1.00;;;;;;5051035;28;20214;-57
2022/12/31 00:54:08;;;;;;;2.43;2.13;;;12.40;1.00;;;;;;5044705;28;20183;-58
2022/12/31 00:56:33;;;;;;;2.63;2.00;;;12.50;1.00;;;;;;5040853;28;20560;-57
2022/12/31 00:58:59;;;;;;;1.83;1.47;;;12.40;1.00;;;;;;5040279;28;20445;-57
2022/12/31 01:01:26;;;;;;;1.60;1.50;;;12.30;1.00;;;;;;5039650;28;20207;-57
2022/12/31 01:03:56;;;;;;;2.93;1.40;;;12.20;1.00;;;;;;5038797;28;20196;-57
2022/12/31 01:06:22;;;;;;;1.90;1.60;;;12.20;1.00;;;;;;5038015;28;20546;-56
2022/12/31 01:08:49;;;;;;;1.40;1.30;;;12.10;1.00;;;;;;5043506;28;20490;-56
2022/12/31 01:11:18;;;;;;;2.10;1.50;;;12.20;1.00;;;;;;5036909;28;20218;-57
2022/12/31 01:13:49;;;;;;;1.53;1.43;;;12.10;1.00;;;;;;5038491;28;20473;-58
2022/12/31 01:16:16;;;;;;;2.13;1.63;;;12.10;1.00;;;;;;5036655;28;20443;-58
2022/12/31 01:18:42;;;;;;;3.37;1.50;;;12.00;1.00;;;;;;5039244;28;20967;-57
2022/12/31 01:21:09;;;;;;;2.20;2.03;;;12.10;1.00;;;;;;5037613;28;20507;-58
2022/12/31 01:23:36;;;;;;;2.37;1.90;;;12.10;1.00;;;;;;5044987;28;20206;-57
2022/12/31 01:26:04;;;;;;;2.13;1.87;;;12.00;1.00;;;;;;5047287;28;20472;-58
2022/12/31 01:28:30;;;;;;;2.03;1.90;;;11.90;1.00;;;;;;5046611;28;20424;-57
2022/12/31 01:30:56;;;;;;;2.40;1.90;;;11.90;1.00;;;;;;5042198;28;20477;-58
2022/12/31 01:33:22;;;;;;;2.57;2.30;;;11.90;1.00;;;;;;5046211;28;20534;-57
2022/12/31 01:35:48;;;;;;;2.50;2.23;;;11.80;1.00;;;;;;5044692;28;20195;-58
2022/12/31 01:38:13;;;;;;;2.17;2.00;;;11.60;1.00;;;;;;5046452;28;20569;-57
2022/12/31 01:40:39;;;;;;;3.03;2.13;;;12.00;1.00;;;;;;5044780;28;20457;-57
2022/12/31 01:43:17;;;;;;;2.43;2.23;;;11.90;1.00;;;;;;5045622;28;20689;-57
2022/12/31 01:45:46;;;;;;;2.23;2.03;;;11.90;1.00;;;;;;5047985;28;20460;-56
2022/12/31 01:48:15;;;;;;;2.60;2.30;;;11.80;1.00;;;;;;5048486;28;20514;-58
2022/12/31 01:50:42;;;;;;;2.37;2.13;;;11.70;1.00;;;;;;5049312;28;20523;-58
2022/12/31 01:53:10;;;;;;;3.47;2.20;;;11.80;1.00;;;;;;5047867;28;20455;-57
2022/12/31 01:55:42;;;;;;;4.30;2.27;;;11.70;1.00;;;;;;5048167;28;21109;-56
2022/12/31 01:58:17;;;;;;;2.97;2.67;;;11.70;1.00;;;;;;5046918;28;20448;-57
2022/12/31 02:00:44;;;;;;;9.70;2.60;;;11.90;1.00;;;;;;5043783;28;20481;-57
2022/12/31 02:03:10;;;;;;;4.00;3.10;;;11.90;1.00;;;;;;5048080;28;20949;-57
2022/12/31 02:05:51;;;;;;;3.30;2.73;;;11.80;1.00;;;;;;5044775;28;21248;-57
2022/12/31 02:08:17;;;;;;;4.30;2.57;;;11.70;1.00;;;;;;5045307;28;20726;-57
2022/12/31 02:10:43;;;;;;;2.63;2.43;;;11.80;1.00;;;;;;5046885;28;20492;-57
2022/12/31 02:13:09;;;;;;;3.47;2.53;;;11.80;1.00;;;;;;5044628;28;20195;-57
2022/12/31 02:15:44;;;;;;;3.47;2.73;;;11.90;1.00;;;;;;5052409;28;20187;-57
2022/12/31 02:18:15;;;;;;;3.80;2.70;;;11.90;1.00;;;;;;5054308;28;20450;-57
2022/12/31 02:21:10;;;;;;;3.47;2.60;;;11.90;1.00;;;;;;5046099;28;20921;-58
2022/12/31 02:24:16;;;;;;;3.20;2.10;;;11.80;1.00;;;;;;5046189;28;20456;-57
2022/12/31 02:27:05;;;;;;;3.17;2.13;;;11.80;1.00;;;;;;5045975;28;20425;-57
2022/12/31 02:29:52;;;;;;;2.20;2.00;;;11.90;1.00;;;;;;5047325;28;20464;-57
2022/12/31 02:32:46;;;;;;;2.30;2.10;;;11.90;1.00;;;;;;5045317;28;20474;-56
2022/12/31 02:35:19;;;;;;;2.07;1.97;;;11.90;1.00;;;;;;5045060;28;20965;-57
2022/12/31 02:37:49;;;;;;;3.07;2.43;;;11.80;1.00;;;;;;5041730;28;20446;-56
2022/12/31 02:40:20;;;;;;;2.80;2.10;;;11.90;1.00;;;;;;5043917;28;20416;-57
2022/12/31 02:42:45;;;;;;;2.40;2.20;;;11.90;1.00;;;;;;5047295;28;20432;-57
2022/12/31 02:45:15;;;;;;;3.10;2.10;;;11.90;1.00;;;;;;5045788;28;20449;-56
2022/12/31 02:47:50;;;;;;;2.47;2.17;;;11.90;1.00;;;;;;5047022;28;20731;-56
2022/12/31 02:51:09;;;;;;;2.40;2.20;;;11.90;1.00;;;;;;5047763;28;20417;-57
2022/12/31 02:54:12;;;;;;;2.50;2.30;;;11.90;1.00;;;;;;4996604;28;20522;-57
2022/12/31 02:56:58;;;;;;;1.90;1.70;;;11.90;1.00;;;;;;5020403;28;20446;-57
2022/12/31 03:02:25;;;;;;;2.50;2.30;;;11.90;1.00;;;;;;5038851;28;20460;-57
2022/12/31 03:04:54;;;;;;;1.80;1.70;;;11.90;1.00;;;;;;5038419;28;20499;-57
2022/12/31 03:07:26;;;;;;;2.63;2.43;;;11.80;1.00;;;;;;5040410;28;20996;-57
2022/12/31 03:09:52;;;;;;;3.10;2.73;;;11.80;1.00;;;;;;5037128;28;20426;-58
2022/12/31 03:15:18;;;;;;;2.50;2.10;;;11.70;1.00;;;;;;5037710;28;20429;-57
2022/12/31 03:17:49;;;;;;;2.60;2.37;;;11.80;1.00;;;;;;5038301;28;20499;-57
2022/12/31 03:22:59;;;;;;;2.60;2.30;;;11.90;1.00;;;;;;5040303;28;20702;-58
2022/12/31 03:25:40;;;;;;;2.20;2.00;;;11.80;1.00;;;;;;5044653;28;20430;-57
2022/12/31 03:28:07;;;;;;;2.30;2.10;;;11.90;1.00;;;;;;5043745;28;20443;-57
2022/12/31 03:30:33;;;;;;;2.93;2.40;;;11.90;1.00;;;;;;5047137;28;20502;-57
2022/12/31 03:33:00;;;;;;;2.03;1.73;;;11.90;1.00;;;;;;5052584;28;20978;-57
2022/12/31 03:35:28;;;;;;;1.77;1.63;;;11.90;1.00;;;;;;5052299;28;20428;-56
2022/12/31 03:37:55;;;;;;;2.27;2.07;;;12.00;1.00;;;;;;5049509;28;20956;-58
2022/12/31 03:40:22;;;;;;;2.50;1.80;;;12.00;1.00;;;;;;5048062;28;20511;-57
2022/12/31 03:42:48;;;;;;;3.97;2.00;;;11.90;1.00;;;;;;5050843;28;20460;-56
2022/12/31 03:45:14;;;;;;;5.83;2.30;;;12.00;1.00;;;;;;5050486;28;21008;-56
2022/12/31 03:47:40;;;;;;;2.50;1.87;;;12.00;1.00;;;;;;5048903;28;20684;-58
2022/12/31 03:50:07;;;;;;;2.50;1.50;;;12.00;1.00;;;;;;5050749;28;20449;-57
2022/12/31 03:52:33;;;;;;;2.80;2.07;;;12.00;1.00;;;;;;5049602;28;20226;-57
2022/12/31 03:55:00;;;;;;;3.83;2.03;;;12.00;1.00;;;;;;5047525;28;20445;-57
2022/12/31 03:57:27;;;;;;;1.87;1.70;;;12.00;1.00;;;;;;5050906;28;20301;-56
2022/12/31 03:59:52;;;;;;;1.97;1.77;;;11.90;1.00;;;;;;5040074;28;20587;-57
2022/12/31 04:02:18;;;;;;;2.50;1.90;;;12.10;1.00;;;;;;5039582;28;21040;-57
2022/12/31 04:04:43;;;;;;;2.67;2.00;;;12.10;1.00;;;;;;5039502;28;20242;-57
2022/12/31 04:07:09;;;;;;;2.07;1.63;;;12.10;1.00;;;;;;5039844;28;20198;-57
2022/12/31 04:09:35;;;;;;;2.90;2.17;;;12.10;1.00;;;;;;5038119;28;20636;-57
2022/12/31 04:12:00;;;;;;;2.10;1.60;;;12.20;1.00;;;;;;5039428;28;20689;-56
2022/12/31 04:14:26;;;;;;;3.13;1.97;;;12.20;1.00;;;;;;5040285;28;20556;-57
2022/12/31 04:16:52;;;;;;;2.10;1.93;;;12.10;1.00;;;;;;5039594;28;20239;-57
2022/12/31 04:19:17;;;;;;;2.60;1.87;;;12.20;1.00;;;;;;5039103;28;20230;-57
2022/12/31 04:21:43;;;;;;;2.50;2.10;;;12.20;1.00;;;;;;5040004;28;20196;-59
2022/12/31 04:24:09;;;;;;;2.10;1.67;;;12.20;1.00;;;;;;5040553;28;20202;-56
2022/12/31 04:26:35;;;;;;;2.40;1.60;;;12.30;1.00;;;;;;5037294;28;20640;-57
2022/12/31 04:29:00;;;;;;;4.57;2.23;;;12.30;1.00;;;;;;5046538;28;20200;-57
2022/12/31 04:31:27;;;;;;;3.00;1.63;;;12.40;1.00;;;;;;5048753;28;20226;-57
2022/12/31 04:33:52;;;;;;;2.20;1.40;;;12.40;1.00;;;;;;5047071;28;20179;-57
2022/12/31 04:36:18;;;;;;;1.40;1.30;;;12.40;1.00;;;;;;5039141;28;20447;-56
2022/12/31 04:38:43;;;;;;;1.50;1.40;;;12.40;1.00;;;;;;5042971;28;20617;-57
2022/12/31 04:41:19;;;;;;;3.23;2.20;;;12.40;1.00;;;;;;5043759;28;20192;-57
2022/12/31 04:43:50;;;;;;;1.77;1.30;;;12.40;1.00;;;;;;5049870;28;20515;-56
2022/12/31 04:46:18;;;;;;;1.80;1.50;;;12.50;1.00;;;;;;5050099;28;20428;-57
2022/12/31 04:48:44;;;;;;;2.07;1.30;;;12.50;1.00;;;;;;5058739;28;20480;-57
2022/12/31 04:51:11;;;;;;;2.07;1.20;;;12.40;1.00;;;;;;5050821;28;20559;-57
2022/12/31 04:53:37;;;;;;;1.63;1.20;;;12.40;1.00;;;;;;5049127;28;20460;-57
2022/12/31 04:56:03;;;;;;;1.07;0.90;;;12.40;1.00;;;;;;5045605;28;20466;-57
2022/12/31 04:58:29;;;;;;;1.70;1.30;;;12.60;1.00;;;;;;5050322;28;20419;-58
2022/12/31 05:00:55;;;;;;;1.80;1.40;;;12.60;1.00;;;;;;5048734;28;20476;-56
2022/12/31 05:03:22;;;;;;;1.70;1.60;;;12.60;1.00;;;;;;5047462;28;20188;-57
2022/12/31 05:05:49;;;;;;;2.23;1.37;;;12.60;1.00;;;;;;5049207;28;20777;-58
2022/12/31 05:08:15;;;;;;;1.57;1.47;;;12.60;1.00;;;;;;5046692;28;20771;-57
2022/12/31 05:10:46;;;;;;;1.40;1.30;;;12.80;1.00;;;;;;5043542;28;20447;-57
2022/12/31 05:13:12;;;;;;;1.70;1.27;;;12.80;1.00;;;;;;5048813;28;20432;-58
2022/12/31 05:15:39;;;;;;;2.43;2.23;;;12.80;1.00;;;;;;5059338;28;21154;-57
2022/12/31 05:18:04;;;;;;;3.17;1.20;;;12.80;1.00;;;;;;5048503;28;20787;-57
2022/12/31 05:20:30;;;;;;;1.53;1.10;;;12.80;1.00;;;;;;5054368;28;20454;-57
2022/12/31 05:22:55;;;;;;;1.50;1.40;;;12.80;1.00;;;;;;5046746;28;20656;-56
2022/12/31 05:25:21;;;;;;;1.73;1.43;;;12.80;1.00;;;;;;5042087;28;20648;-56
2022/12/31 05:27:47;;;;;;;2.10;1.40;;;12.90;1.00;;;;;;5048995;28;20547;-58
2022/12/31 05:30:13;;;;;;;1.30;1.10;;;13.00;1.00;;;;;;5050424;28;20672;-57
2022/12/31 05:32:39;;;;;;;1.40;1.27;;;13.00;1.00;;;;;;5040866;28;20243;-58
2022/12/31 05:35:06;;;;;;;1.37;0.90;;;12.90;1.00;;;;;;5029482;28;20555;-57
2022/12/31 05:37:32;;;;;;;1.10;1.00;;;13.10;1.00;;;;;;5037520;28;20530;-57
2022/12/31 05:39:58;;;;;;;5.60;1.23;;;13.00;1.00;;;;;;5046214;28;20534;-57
2022/12/31 05:42:23;;;;;;;1.20;1.03;;;13.00;1.00;;;;;;5044180;28;20529;-58
2022/12/31 05:44:49;;;;;;;0.80;0.67;;;12.90;1.00;;;;;;5046467;28;20884;-57
2022/12/31 05:47:16;;;;;;;0.60;0.60;;;13.20;1.00;;;;;;5049915;28;20196;-57
2022/12/31 05:49:41;;;;;;;0.70;0.70;;;13.30;1.00;;;;;;5044457;28;20205;-58
2022/12/31 05:52:07;;;;;;;0.30;0.20;;;13.50;1.00;;;;;;5044441;28;20729;-57
2022/12/31 05:54:33;;;;;;;0.30;0.20;;;13.90;1.00;;;;;;5034960;28;20258;-57
2022/12/31 05:56:59;;;;;;;0.50;0.23;;;14.00;1.00;;;;;;5040172;28;20515;-59
2022/12/31 05:59:24;;;;;;;0.20;0.20;;;14.50;1.00;;;;;;5039171;28;20183;-58
2022/12/31 06:01:50;;;;;;;0.30;0.20;;;14.70;1.00;;;;;;5037853;28;20275;-58
2022/12/31 06:04:16;;;;;;;0.50;0.30;;;15.40;1.00;;;;;;5039899;28;20189;-57
2022/12/31 06:06:42;;;;;;;0.63;0.20;;;15.00;1.00;;;;;;5037173;28;20187;-57
2022/12/31 06:09:07;;;;;;;0.80;0.23;;;15.10;1.00;;;;;;5039569;28;20436;-56
2022/12/31 06:11:33;;;;;;;0.30;0.20;;;15.30;1.00;;;;;;5037306;28;20311;-56
2022/12/31 06:13:59;;;;;;;0.30;0.23;;;15.10;1.00;;;;;;5039754;28;20191;-57
2022/12/31 06:16:25;;;;;;;0.50;0.20;;;14.90;1.00;;;;;;5036205;28;20520;-58
2022/12/31 06:18:51;;;;;;;0.63;0.30;;;15.00;1.00;;;;;;5040131;28;21124;-57
2022/12/31 06:21:19;;;;;;;0.30;0.20;;;15.10;1.00;;;;;;5040120;28;20575;-57
2022/12/31 06:23:45;;;;;;;0.30;0.20;;;15.10;1.00;;;;;;5034944;28;20540;-57
2022/12/31 06:26:10;;;;;;;0.33;0.30;;;15.20;1.00;;;;;;5043902;28;20457;-57
2022/12/31 06:28:36;;;;;;;0.70;0.40;;;15.10;1.00;;;;;;5046662;28;20450;-57
2022/12/31 06:31:04;;;;;;;0.40;0.30;;;15.00;1.00;;;;;;5044150;28;20204;-57
2022/12/31 06:33:30;;;;;;;0.40;0.37;;;14.90;1.00;;;;;;5040503;28;20190;-58
2022/12/31 06:35:57;;;;;;;0.30;0.20;;;14.90;1.00;;;;;;5045098;28;20956;-57
2022/12/31 06:38:27;;;;;;;0.63;0.40;;;14.80;1.00;;;;;;5045639;28;20447;-58
2022/12/31 06:40:53;;;;;;;0.50;0.30;;;14.80;1.00;;;;;;5046549;28;20455;-57
2022/12/31 06:43:19;;;;;;;0.30;0.30;;;15.00;1.00;;;;;;5048486;28;20466;-58
2022/12/31 06:45:45;;;;;;;0.60;0.40;;;15.20;1.00;;;;;;5044617;28;20215;-56
2022/12/31 06:48:11;;;;;;;0.63;0.40;;;15.20;1.00;;;;;;5044741;28;21005;-58
2022/12/31 06:50:36;;;;;;;0.40;0.37;;;15.00;1.00;;;;;;5048225;28;20183;-58
2022/12/31 06:53:02;;;;;;;0.40;0.30;;;14.90;1.00;;;;;;5046200;28;20711;-57
2022/12/31 06:55:28;;;;;;;0.50;0.47;;;14.90;1.00;;;;;;5046707;28;20234;-58
2022/12/31 06:57:54;;;;;;;0.63;0.40;;;15.00;1.00;;;;;;5049429;28;20582;-57
2022/12/31 07:00:20;;;;;;;0.57;0.40;;;14.80;1.00;;;;;;5047382;28;20462;-57
2022/12/31 07:03:03;;;;;;;1.07;0.30;;;15.00;1.00;;;;;;5047815;28;20496;-57
2022/12/31 07:06:03;;;;;;;1.10;0.40;;;15.10;1.00;;;;;;5045074;28;20446;-58
2022/12/31 07:08:41;;;;;;;1.03;0.50;;;15.20;1.00;;;;;;5047496;28;20446;-57
2022/12/31 07:11:24;;;;;;;1.60;0.70;;;15.50;1.00;;;;;;5047390;28;20547;-58
2022/12/31 07:14:06;;;;;;;0.70;0.40;;;15.50;1.00;;;;;;5045399;28;20452;-57
2022/12/31 07:16:43;;;;;;;0.63;0.50;;;15.60;1.00;;;;;;5044700;28;20442;-57
2022/12/31 07:19:15;;;;;;;0.60;0.60;;;15.60;1.00;;;;;;5047335;28;20826;-58
2022/12/31 07:21:42;;;;;;;0.40;0.40;;;15.60;1.00;;;;;;5047196;28;20545;-60
2022/12/31 07:24:10;;;;;;;0.97;0.50;;;15.60;1.00;;;;;;5045213;28;20439;-55
2022/12/31 07:27:00;;;;;;;0.93;0.30;;;15.60;1.00;;;;;;5047663;28;20529;-56
2022/12/31 07:30:03;;;;;;;1.17;0.50;;;15.70;1.00;;;;;;5046825;28;20446;-57
2022/12/31 07:32:50;;;;;;;0.70;0.40;;;15.70;1.00;;;;;;5046301;28;20476;-57
2022/12/31 07:35:45;;;;;;;0.73;0.40;;;15.60;1.00;;;;;;5046628;28;20442;-56
2022/12/31 07:38:41;;;;;;;0.80;0.50;;;15.70;1.00;;;;;;5048092;28;20442;-56
2022/12/31 07:41:10;;;;;;;0.77;0.50;;;15.70;1.00;;;;;;5047201;28;20416;-57
2022/12/31 07:44:02;;;;;;;2.10;0.57;;;15.60;1.00;;;;;;5061223;28;20433;-56
2022/12/31 07:46:56;;;;;;;0.70;0.57;;;15.80;1.00;;;;;;5050500;28;20430;-57
2022/12/31 07:49:24;;;;;;;1.23;0.70;;;15.60;1.00;;;;;;5047922;28;20456;-57
2022/12/31 07:51:50;;;;;;;0.60;0.53;;;15.80;1.00;;;;;;5048897;28;20564;-56
2022/12/31 07:54:15;;;;;;;2.70;0.60;;;15.90;1.00;;;;;;5045455;28;20463;-56
2022/12/31 07:56:42;;;;;;;0.87;0.63;;;15.90;1.00;;;;;;5045459;28;20804;-57
2022/12/31 07:59:26;;;;;;;5.90;1.00;;;16.00;1.00;;;;;;5046854;28;20184;-57
2022/12/31 08:02:24;;;;;;;0.80;0.67;;;15.90;1.00;;;;;;5045238;28;20458;-57
2022/12/31 08:05:19;;;;;;;0.57;0.43;;;16.00;1.00;;;;;;5045083;28;20439;-56
2022/12/31 08:07:48;;;;;;;1.07;0.50;;;16.20;1.00;;;;;;5045388;28;20447;-56
2022/12/31 08:10:34;;;;;;;0.80;0.50;;;16.10;1.00;;;;;;5047133;28;20478;-57
2022/12/31 08:13:02;;;;;;;0.73;0.73;;;16.20;1.00;;;;;;5047676;28;20443;-57
2022/12/31 08:15:28;;;;;;;0.90;0.47;;;16.40;1.00;;;;;;5044623;28;20473;-57
2022/12/31 08:17:54;;;;;;;1.10;0.60;;;16.50;1.00;;;;;;5049854;28;20413;-56
2022/12/31 08:20:20;;;;;;;0.97;0.73;;;16.60;1.00;;;;;;5050885;28;20451;-57
2022/12/31 08:23:01;;;;;;;1.00;0.50;;;16.70;1.00;;;;;;5049814;28;20199;-58
2022/12/31 08:26:00;;;;;;;0.40;0.40;;;16.90;1.00;;;;;;5048974;28;20191;-58
2022/12/31 08:29:01;;;;;;;1.33;0.53;;;16.90;1.00;;;;;;5049838;28;20567;-57
2022/12/31 08:31:52;;;;;;;0.50;0.40;;;17.10;1.00;;;;;;5051141;28;20538;-57
2022/12/31 08:34:39;;;;;;;0.70;0.60;;;17.30;1.00;;;;;;5051499;28;20442;-57
2022/12/31 08:37:13;;;;;;;0.90;0.40;;;17.30;1.00;;;;;;5050590;28;20469;-57
2022/12/31 08:39:42;;;;;;;0.77;0.50;;;17.40;1.00;;;;;;5050476;28;20541;-57
2022/12/31 08:42:19;;;;;;;2.97;0.73;;;17.50;1.00;;;;;;5050822;28;20537;-57
2022/12/31 08:44:59;;;;;;;1.07;0.47;;;17.40;1.00;;;;;;5051231;28;20808;-55
2022/12/31 08:47:44;;;;;;;0.70;0.57;;;17.60;1.00;;;;;;5048805;28;20452;-56
2022/12/31 08:50:17;;;;;;;0.73;0.53;;;17.60;1.00;;;;;;5051578;28;20413;-56
2022/12/31 08:52:43;;;;;;;1.47;0.50;;;17.60;1.00;;;;;;5050784;28;20480;-58
2022/12/31 08:55:17;;;;;;;1.30;0.53;;;17.60;1.00;;;;;;5051037;28;20440;-58
2022/12/31 08:58:19;;;;;;;0.90;0.43;;;17.60;1.00;;;;;;5050901;28;20470;-57
2022/12/31 09:00:47;;;;;;;1.03;0.60;;;17.70;1.00;;;;;;5052474;28;20434;-55
2022/12/31 09:03:18;;;;;;;1.63;0.97;;;17.60;1.00;;;;;;5051252;28;20632;-57
2022/12/31 09:06:14;;;;;;;0.60;0.40;;;17.60;1.00;;;;;;5051460;28;20393;-57
2022/12/31 09:09:19;;;;;;;0.80;0.70;;;17.70;1.00;;;;;;5049480;28;20439;-58
2022/12/31 09:12:04;;;;;;;0.77;0.60;;;17.70;1.00;;;;;;5050191;28;20470;-57
2022/12/31 09:14:39;;;;;;;2.23;0.80;;;17.90;1.00;;;;;;5050502;28;20448;-57
2022/12/31 09:17:29;;;;;;;0.60;0.60;;;17.90;1.00;;;;;;5050245;28;20438;-57
2022/12/31 09:19:55;;;;;;;1.77;1.00;;;18.00;1.00;;;;;;5050305;28;20523;-57
2022/12/31 09:22:21;;;;;;;0.70;0.70;;;18.10;1.00;;;;;;5051168;28;20830;-56
2022/12/31 09:24:47;;;;;;;0.80;0.70;;;18.20;1.00;;;;;;5048663;28;20470;-57
2022/12/31 09:27:16;;;;;;;1.70;0.80;;;18.30;1.00;;;;;;5051274;28;20405;-57
2022/12/31 09:29:59;;;;;;;3.10;0.77;;;18.30;1.00;;;;;;5050220;28;20834;-57
2022/12/31 09:32:37;;;;;;;0.87;0.60;;;18.40;1.00;;;;;;5048390;28;20794;-57
2022/12/31 09:35:10;;;;;;;0.70;0.63;;;18.30;1.00;;;;;;5050868;28;20435;-57
2022/12/31 09:37:49;;;;;;;1.50;0.70;;;18.30;1.00;;;;;;5050175;28;20457;-58
2022/12/31 09:40:38;;;;;;;0.70;0.50;;;18.30;1.00;;;;;;5048761;28;20405;-57
2022/12/31 09:43:40;;;;;;;2.00;0.63;;;18.40;1.00;;;;;;5049597;28;20429;-57
2022/12/31 09:46:39;;;;;;;1.00;0.70;;;18.40;1.00;;;;;;4988712;28;20449;-57
2022/12/31 09:49:25;;;;;;;1.00;0.63;;;18.50;1.00;;;;;;5049096;28;20447;-57
2022/12/31 09:52:29;;;;;;;0.70;0.63;;;18.50;1.00;;;;;;5049361;28;20485;-57
2022/12/31 09:55:21;;;;;;;1.60;0.80;;;18.50;1.00;;;;;;5048977;28;20462;-56
2022/12/31 09:57:53;;;;;;;1.10;0.90;;;18.50;1.00;;;;;;5049154;28;20784;-57
2022/12/31 10:00:32;;;;;;;1.40;0.53;;;18.50;1.00;;;;;;5050606;28;20431;-58
2022/12/31 10:03:20;;;;;;;1.10;0.80;;;18.50;1.00;;;;;;5049601;28;20445;-56
2022/12/31 10:05:57;;;;;;;1.03;0.40;;;18.50;1.00;;;;;;5050302;28;20454;-57
2022/12/31 10:08:41;;;;;;;1.33;1.23;;;18.50;1.00;;;;;;5048480;28;20468;-57
2022/12/31 10:11:32;;;;;;;0.77;0.60;;;18.60;1.00;;;;;;5048181;28;20437;-58
2022/12/31 10:14:16;;;;;;;0.60;0.60;;;18.60;1.00;;;;;;5050282;28;20533;-57
2022/12/31 10:16:42;;;;;;;2.23;0.80;;;18.60;1.00;;;;;;5047638;28;20954;-57
2022/12/31 10:19:25;;;;;;;1.10;0.70;;;18.60;1.00;;;;;;5049510;28;20423;-57
2022/12/31 10:22:23;;;;;;;0.70;0.50;;;18.60;1.00;;;;;;5048214;28;20554;-57
2022/12/31 10:25:14;;;;;;;1.23;0.60;;;18.60;1.00;;;;;;5045415;28;20443;-57
2022/12/31 10:27:59;;;;;;;0.60;0.53;;;18.70;1.00;;;;;;5048702;28;20419;-57
2022/12/31 10:30:29;;;;;;;1.00;0.80;;;18.70;1.00;;;;;;5049618;28;20429;-57
2022/12/31 10:33:13;;;;;;;0.60;0.60;;;18.80;1.00;;;;;;5048777;28;20910;-56
2022/12/31 10:35:52;;;;;;;1.53;0.60;;;18.80;1.00;;;;;;5048975;28;20494;-57
2022/12/31 10:38:23;;;;;;;0.87;0.70;;;18.80;1.00;;;;;;5048987;28;20438;-56
2022/12/31 10:41:10;;;;;;;1.83;0.50;;;18.90;1.00;;;;;;5048881;28;20702;-55
2022/12/31 10:43:48;;;;;;;2.30;0.90;;;18.90;1.00;;;;;;5048306;28;20449;-58
2022/12/31 10:46:28;;;;;;;1.37;0.60;;;18.90;1.00;;;;;;5049359;28;20528;-59
2022/12/31 10:49:05;;;;;;;1.43;0.63;;;18.80;1.00;;;;;;5047643;28;20437;-56
2022/12/31 10:51:52;;;;;;;1.20;0.97;;;18.90;1.00;;;;;;5045662;28;20474;-57
2022/12/31 10:55:06;;;;;;;1.83;0.87;;;18.90;1.00;;;;;;5048391;28;20936;-57
2022/12/31 10:57:34;;;;;;;2.07;1.20;;;19.00;1.00;;;;;;5042705;28;20443;-58
2022/12/31 11:00:20;;;;;;;0.73;0.67;;;19.00;1.00;;;;;;5051473;28;20402;-56
2022/12/31 11:03:16;;;;;;;0.80;0.60;;;18.90;1.00;;;;;;5046788;28;20425;-56
2022/12/31 11:06:25;;;;;;;1.63;0.70;;;19.00;1.00;;;;;;5049038;28;20497;-58
2022/12/31 11:08:57;;;;;;;1.10;0.80;;;19.00;1.00;;;;;;5044887;28;20413;-58
2022/12/31 11:11:51;;;;;;;2.30;0.70;;;19.00;1.00;;;;;;5043450;28;20960;-57
2022/12/31 11:14:31;;;;;;;0.80;0.70;;;19.00;1.00;;;;;;5048042;28;20486;-58
2022/12/31 11:17:19;;;;;;;0.90;0.70;;;19.10;1.00;;;;;;5048835;28;21070;-58
2022/12/31 11:20:09;;;;;;;1.33;0.80;;;19.10;1.00;;;;;;5048843;28;20733;-58
2022/12/31 11:23:15;;;;;;;1.03;0.90;;;19.20;1.00;;;;;;5046921;28;20457;-56
2022/12/31 11:25:47;;;;;;;3.00;0.80;;;19.20;1.00;;;;;;5047879;28;20417;-57
2022/12/31 11:28:27;;;;;;;1.47;1.00;;;19.10;1.00;;;;;;5048047;28;20429;-58
2022/12/31 11:31:25;;;;;;;1.83;1.00;;;19.00;1.00;;;;;;5049303;28;20490;-56
2022/12/31 11:34:16;;;;;;;1.83;1.10;;;19.00;1.00;;;;;;5049229;28;20478;-57
2022/12/31 11:37:17;;;;;;;1.00;0.87;;;19.00;1.00;;;;;;5044016;28;20871;-57
2022/12/31 11:40:22;;;;;;;0.90;0.60;;;19.10;1.00;;;;;;5047387;28;20461;-58
2022/12/31 11:42:54;;;;;;;0.70;0.67;;;19.20;1.00;;;;;;5048207;28;20416;-57
2022/12/31 11:45:48;;;;;;;0.73;0.60;;;19.20;1.00;;;;;;5048576;28;20405;-57
2022/12/31 11:48:28;;;;;;;1.20;0.80;;;19.20;1.00;;;;;;5046351;28;20472;-57
2022/12/31 11:51:08;;;;;;;1.80;1.00;;;19.20;1.00;;;;;;5047519;28;20494;-57
2022/12/31 11:53:33;;;;;;;1.03;0.90;;;19.10;1.00;;;;;;5052710;28;20438;-57
2022/12/31 11:56:11;;;;;;;0.77;0.67;;;19.30;1.00;;;;;;5053309;28;20415;-57
2022/12/31 11:58:37;;;;;;;2.10;0.90;;;19.30;1.00;;;;;;5050034;28;20192;-57
2022/12/31 12:01:03;;;;;;;1.93;0.60;;;19.30;1.00;;;;;;5051710;28;20417;-58
2022/12/31 12:03:30;;;;;;;1.40;0.80;;;19.40;1.00;;;;;;5052449;28;20435;-57
2022/12/31 12:05:57;;;;;;;1.40;0.87;;;19.30;1.00;;;;;;5051011;28;20205;-58
2022/12/31 12:08:25;;;;;;;1.57;1.00;;;19.40;1.00;;;;;;5057998;28;20913;-57
2022/12/31 12:11:06;;;;;;;2.43;0.90;;;19.40;1.00;;;;;;5071610;28;20520;-59
2022/12/31 12:13:32;;;;;;;2.97;0.83;;;19.40;1.00;;;;;;5058122;28;20787;-57
2022/12/31 12:16:01;;;;;;;1.07;0.80;;;19.40;1.00;;;;;;5059933;28;20469;-57
2022/12/31 12:18:39;;;;;;;1.40;0.80;;;19.50;1.00;;;;;;5052064;28;20504;-57
2022/12/31 12:21:18;;;;;;;0.97;0.73;;;19.60;1.00;;;;;;5051669;28;20450;-58
2022/12/31 12:24:01;;;;;;;2.77;0.90;;;19.80;1.00;;;;;;5051779;28;20903;-58
2022/12/31 12:26:41;;;;;;;1.17;0.73;;;19.90;1.00;;;;;;5051113;28;20450;-57
2022/12/31 12:29:13;;;;;;;2.80;0.80;;;19.90;1.00;;;;;;5051497;28;20945;-57
2022/12/31 12:31:39;;;;;;;1.43;0.70;;;20.00;1.00;;;;;;5051656;28;20449;-58
2022/12/31 12:34:19;;;;;;;1.20;0.90;;;20.00;1.00;;;;;;5052924;28;20441;-57
2022/12/31 12:36:45;;;;;;;0.77;0.67;;;20.00;1.00;;;;;;5049466;28;20449;-58
2022/12/31 12:39:22;;;;;;;1.47;0.83;;;19.90;1.00;;;;;;5052868;28;20435;-57
2022/12/31 12:42:11;;;;;;;1.40;0.70;;;20.00;1.00;;;;;;5050360;28;20436;-58
2022/12/31 12:44:37;;;;;;;1.23;0.80;;;20.10;1.00;;;;;;5051445;28;20488;-57
2022/12/31 12:47:06;;;;;;;0.70;0.63;;;20.10;1.00;;;;;;5050737;28;20482;-58
2022/12/31 12:49:38;;;;;;;0.93;0.63;;;20.20;1.00;;;;;;5052152;28;20477;-57
2022/12/31 12:52:22;;;;;;;0.80;0.77;;;20.20;1.00;;;;;;5052017;28;20452;-57
2022/12/31 12:54:47;;;;;;;0.97;0.60;;;20.10;1.00;;;;;;5065193;28;20967;-56
2022/12/31 12:57:18;;;;;;;0.70;0.70;;;20.10;1.00;;;;;;5072423;28;20458;-58
2022/12/31 12:59:47;;;;;;;2.30;0.77;;;20.10;1.00;;;;;;5068776;28;20192;-57
2022/12/31 13:02:35;;;;;;;1.67;0.60;;;20.10;1.00;;;;;;5051464;28;20446;-58
2022/12/31 13:05:13;;;;;;;0.73;0.50;;;20.10;1.00;;;;;;5052155;28;20439;-57
2022/12/31 13:08:12;;;;;;;1.93;0.70;;;20.10;1.00;;;;;;5051112;28;20477;-57
2022/12/31 13:10:45;;;;;;;2.20;1.00;;;20.20;1.00;;;;;;5052022;28;20425;-57
2022/12/31 13:13:36;;;;;;;1.00;0.70;;;20.20;1.00;;;;;;5051805;28;20934;-56
2022/12/31 13:16:06;;;;;;;0.80;0.80;;;20.00;1.00;;;;;;5055420;28;20434;-57
2022/12/31 13:18:53;;;;;;;1.90;1.20;;;20.00;1.00;;;;;;5048464;28;20616;-58
2022/12/31 13:21:27;;;;;;;1.00;0.80;;;20.00;1.00;;;;;;5046067;28;20494;-57
2022/12/31 13:24:20;;;;;;;2.47;1.13;;;20.00;1.00;;;;;;5048780;28;20451;-57
2022/12/31 13:26:58;;;;;;;1.47;0.87;;;19.90;1.00;;;;;;5025571;28;20479;-57
2022/12/31 13:29:30;;;;;;;1.87;0.93;;;19.80;1.00;;;;;;5051004;28;20439;-57
2022/12/31 13:31:57;;;;;;;1.10;0.70;;;19.70;1.00;;;;;;5047136;28;20502;-56
2022/12/31 13:34:29;;;;;;;0.80;0.60;;;19.60;1.00;;;;;;5050226;28;20857;-58
2022/12/31 13:36:59;;;;;;;1.33;0.87;;;19.60;1.00;;;;;;5049986;28;20509;-58
2022/12/31 13:39:28;;;;;;;1.67;0.93;;;19.60;1.00;;;;;;5049757;28;20981;-57
2022/12/31 13:42:12;;;;;;;1.10;0.60;;;19.60;1.00;;;;;;5049768;28;20451;-56